sensor_id;sensor_type;location;lat;lon;timestamp;temperature;humidity
69595;DHT22;56800;52.142;5.364;2024-03-07T00:00:51;5.60;82.20
69595;DHT22;56800;52.142;5.364;2024-03-07T00:03:21;5.60;82.30
69595;DHT22;56800;52.142;5.364;2024-03-07T00:05:48;5.50;83.00
69595;DHT22;56800;52.142;5.364;2024-03-07T00:08:15;5.50;82.40
69595;DHT22;56800;52.142;5.364;2024-03-07T00:10:42;5.50;82.40
69595;DHT22;56800;52.142;5.364;2024-03-07T00:13:11;5.50;82.50
69595;DHT22;56800;52.142;5.364;2024-03-07T00:15:39;5.50;82.50
69595;DHT22;56800;52.142;5.364;2024-03-07T00:18:08;5.50;82.60
69595;DHT22;56800;52.142;5.364;2024-03-07T00:20:37;5.40;82.50
69595;DHT22;56800;52.142;5.364;2024-03-07T00:23:04;5.40;83.30
69595;DHT22;56800;52.142;5.364;2024-03-07T00:25:31;5.50;82.70
69595;DHT22;56800;52.142;5.364;2024-03-07T00:27:58;5.40;82.70
69595;DHT22;56800;52.142;5.364;2024-03-07T00:30:29;5.40;82.70
69595;DHT22;56800;52.142;5.364;2024-03-07T00:32:57;5.40;82.80
69595;DHT22;56800;52.142;5.364;2024-03-07T00:35:24;5.40;82.90
69595;DHT22;56800;52.142;5.364;2024-03-07T00:37:51;5.40;82.90
69595;DHT22;56800;52.142;5.364;2024-03-07T00:40:18;5.40;82.90
69595;DHT22;56800;52.142;5.364;2024-03-07T00:42:46;5.30;83.00
69595;DHT22;56800;52.142;5.364;2024-03-07T00:45:13;5.40;82.90
69595;DHT22;56800;52.142;5.364;2024-03-07T00:47:39;5.30;82.90
69595;DHT22;56800;52.142;5.364;2024-03-07T00:50:07;5.30;82.90
69595;DHT22;56800;52.142;5.364;2024-03-07T00:52:36;5.30;82.90
69595;DHT22;56800;52.142;5.364;2024-03-07T00:55:04;5.30;83.00
69595;DHT22;56800;52.142;5.364;2024-03-07T00:57:31;5.30;83.00
69595;DHT22;56800;52.142;5.364;2024-03-07T00:59:58;5.30;82.90
69595;DHT22;56800;52.142;5.364;2024-03-07T01:02:25;5.20;82.90
69595;DHT22;56800;52.142;5.364;2024-03-07T01:04:52;5.20;83.00
69595;DHT22;56800;52.142;5.364;2024-03-07T01:07:21;5.20;83.00
69595;DHT22;56800;52.142;5.364;2024-03-07T01:09:50;5.20;83.00
69595;DHT22;56800;52.142;5.364;2024-03-07T01:12:17;5.20;83.00
69595;DHT22;56800;52.142;5.364;2024-03-07T01:14:47;5.20;83.10
69595;DHT22;56800;52.142;5.364;2024-03-07T01:17:14;5.20;83.10
69595;DHT22;56800;52.142;5.364;2024-03-07T01:19:40;5.10;83.00
69595;DHT22;56800;52.142;5.364;2024-03-07T01:22:07;5.10;83.10
69595;DHT22;56800;52.142;5.364;2024-03-07T01:24:35;5.10;83.10
69595;DHT22;56800;52.142;5.364;2024-03-07T01:27:02;5.10;83.10
69595;DHT22;56800;52.142;5.364;2024-03-07T01:29:30;5.10;83.20
69595;DHT22;56800;52.142;5.364;2024-03-07T01:31:58;5.10;83.20
69595;DHT22;56800;52.142;5.364;2024-03-07T01:34:24;5.10;83.20
69595;DHT22;56800;52.142;5.364;2024-03-07T01:36:51;5.10;83.20
69595;DHT22;56800;52.142;5.364;2024-03-07T01:39:18;5.10;83.20
69595;DHT22;56800;52.142;5.364;2024-03-07T01:41:46;5.00;83.20
69595;DHT22;56800;52.142;5.364;2024-03-07T01:44:13;5.00;83.20
69595;DHT22;56800;52.142;5.364;2024-03-07T01:46:40;5.00;83.10
69595;DHT22;56800;52.142;5.364;2024-03-07T01:49:08;5.00;83.20
69595;DHT22;56800;52.142;5.364;2024-03-07T01:51:36;5.00;83.30
69595;DHT22;56800;52.142;5.364;2024-03-07T01:54:05;4.90;83.30
69595;DHT22;56800;52.142;5.364;2024-03-07T01:56:33;4.90;83.30
69595;DHT22;56800;52.142;5.364;2024-03-07T01:59:01;4.90;83.40
69595;DHT22;56800;52.142;5.364;2024-03-07T02:01:28;4.90;83.40
69595;DHT22;56800;52.142;5.364;2024-03-07T02:03:56;4.90;83.40
69595;DHT22;56800;52.142;5.364;2024-03-07T02:06:23;4.90;83.50
69595;DHT22;56800;52.142;5.364;2024-03-07T02:08:51;4.90;83.50
69595;DHT22;56800;52.142;5.364;2024-03-07T02:11:18;4.90;83.50
69595;DHT22;56800;52.142;5.364;2024-03-07T02:13:45;4.80;83.50
69595;DHT22;56800;52.142;5.364;2024-03-07T02:16:13;4.80;83.50
69595;DHT22;56800;52.142;5.364;2024-03-07T02:18:40;4.80;83.50
69595;DHT22;56800;52.142;5.364;2024-03-07T02:21:08;4.80;83.60
69595;DHT22;56800;52.142;5.364;2024-03-07T02:23:35;4.80;83.60
69595;DHT22;56800;52.142;5.364;2024-03-07T02:26:03;4.80;83.70
69595;DHT22;56800;52.142;5.364;2024-03-07T02:28:30;4.80;83.90
69595;DHT22;56800;52.142;5.364;2024-03-07T02:30:56;4.90;84.10
69595;DHT22;56800;52.142;5.364;2024-03-07T02:33:23;4.90;84.20
69595;DHT22;56800;52.142;5.364;2024-03-07T02:35:50;5.00;84.30
69595;DHT22;56800;52.142;5.364;2024-03-07T02:38:18;5.00;84.30
69595;DHT22;56800;52.142;5.364;2024-03-07T02:40:46;5.00;84.30
69595;DHT22;56800;52.142;5.364;2024-03-07T02:43:13;5.00;84.30
69595;DHT22;56800;52.142;5.364;2024-03-07T02:45:40;5.00;84.30
69595;DHT22;56800;52.142;5.364;2024-03-07T02:48:07;5.00;84.30
69595;DHT22;56800;52.142;5.364;2024-03-07T02:50:37;5.00;84.30
69595;DHT22;56800;52.142;5.364;2024-03-07T02:53:06;5.00;84.40
69595;DHT22;56800;52.142;5.364;2024-03-07T02:55:33;5.00;84.30
69595;DHT22;56800;52.142;5.364;2024-03-07T02:58:00;5.00;85.10
69595;DHT22;56800;52.142;5.364;2024-03-07T03:00:27;5.00;84.30
69595;DHT22;56800;52.142;5.364;2024-03-07T03:02:56;5.00;84.40
69595;DHT22;56800;52.142;5.364;2024-03-07T03:05:23;4.90;84.30
69595;DHT22;56800;52.142;5.364;2024-03-07T03:07:51;4.90;84.30
69595;DHT22;56800;52.142;5.364;2024-03-07T03:10:25;4.90;85.10
69595;DHT22;56800;52.142;5.364;2024-03-07T03:13:00;4.90;84.40
69595;DHT22;56800;52.142;5.364;2024-03-07T03:15:28;4.80;84.20
69595;DHT22;56800;52.142;5.364;2024-03-07T03:17:56;4.80;84.20
69595;DHT22;56800;52.142;5.364;2024-03-07T03:20:26;4.80;84.20
69595;DHT22;56800;52.142;5.364;2024-03-07T03:23:01;4.80;84.20
69595;DHT22;56800;52.142;5.364;2024-03-07T03:25:46;4.80;84.20
69595;DHT22;56800;52.142;5.364;2024-03-07T03:28:15;4.80;84.30
69595;DHT22;56800;52.142;5.364;2024-03-07T03:30:42;4.70;85.00
69595;DHT22;56800;52.142;5.364;2024-03-07T03:33:10;4.70;84.30
69595;DHT22;56800;52.142;5.364;2024-03-07T03:35:37;4.70;85.10
69595;DHT22;56800;52.142;5.364;2024-03-07T03:38:05;4.60;84.40
69595;DHT22;56800;52.142;5.364;2024-03-07T03:40:32;4.60;84.40
69595;DHT22;56800;52.142;5.364;2024-03-07T03:43:00;4.60;84.40
69595;DHT22;56800;52.142;5.364;2024-03-07T03:45:28;4.60;84.40
69595;DHT22;56800;52.142;5.364;2024-03-07T03:47:55;4.50;84.30
69595;DHT22;56800;52.142;5.364;2024-03-07T03:50:22;4.50;84.20
69595;DHT22;56800;52.142;5.364;2024-03-07T03:52:52;4.50;84.30
69595;DHT22;56800;52.142;5.364;2024-03-07T03:55:19;4.50;84.30
69595;DHT22;56800;52.142;5.364;2024-03-07T03:57:47;4.40;84.40
69595;DHT22;56800;52.142;5.364;2024-03-07T04:00:16;4.40;84.40
69595;DHT22;56800;52.142;5.364;2024-03-07T04:02:44;4.40;84.40
69595;DHT22;56800;52.142;5.364;2024-03-07T04:05:18;4.40;84.30
69595;DHT22;56800;52.142;5.364;2024-03-07T04:07:46;4.40;84.30
69595;DHT22;56800;52.142;5.364;2024-03-07T04:10:15;4.40;84.30
69595;DHT22;56800;52.142;5.364;2024-03-07T04:12:43;4.30;84.30
69595;DHT22;56800;52.142;5.364;2024-03-07T04:15:13;4.30;84.40
69595;DHT22;56800;52.142;5.364;2024-03-07T04:17:45;4.30;84.40
69595;DHT22;56800;52.142;5.364;2024-03-07T04:20:14;4.30;84.40
69595;DHT22;56800;52.142;5.364;2024-03-07T04:22:45;4.30;84.30
69595;DHT22;56800;52.142;5.364;2024-03-07T04:25:12;4.30;84.30
69595;DHT22;56800;52.142;5.364;2024-03-07T04:27:39;4.30;84.30
69595;DHT22;56800;52.142;5.364;2024-03-07T04:30:07;4.30;84.40
69595;DHT22;56800;52.142;5.364;2024-03-07T04:32:39;4.20;84.40
69595;DHT22;56800;52.142;5.364;2024-03-07T04:35:06;4.20;84.30
69595;DHT22;56800;52.142;5.364;2024-03-07T04:37:40;4.20;84.30
69595;DHT22;56800;52.142;5.364;2024-03-07T04:40:09;4.20;84.30
69595;DHT22;56800;52.142;5.364;2024-03-07T04:42:48;4.20;84.40
69595;DHT22;56800;52.142;5.364;2024-03-07T04:45:19;4.20;84.30
69595;DHT22;56800;52.142;5.364;2024-03-07T04:47:46;4.10;84.30
69595;DHT22;56800;52.142;5.364;2024-03-07T04:50:15;4.10;84.20
69595;DHT22;56800;52.142;5.364;2024-03-07T04:52:45;4.10;84.30
69595;DHT22;56800;52.142;5.364;2024-03-07T04:55:14;4.10;84.30
69595;DHT22;56800;52.142;5.364;2024-03-07T04:57:41;4.10;84.30
69595;DHT22;56800;52.142;5.364;2024-03-07T05:00:12;4.10;84.30
69595;DHT22;56800;52.142;5.364;2024-03-07T05:02:47;4.10;84.40
69595;DHT22;56800;52.142;5.364;2024-03-07T05:05:15;4.00;84.30
69595;DHT22;56800;52.142;5.364;2024-03-07T05:07:49;4.00;84.30
69595;DHT22;56800;52.142;5.364;2024-03-07T05:10:17;4.00;84.40
69595;DHT22;56800;52.142;5.364;2024-03-07T05:12:44;4.00;84.30
69595;DHT22;56800;52.142;5.364;2024-03-07T05:15:11;4.00;84.30
69595;DHT22;56800;52.142;5.364;2024-03-07T05:17:38;4.00;84.40
69595;DHT22;56800;52.142;5.364;2024-03-07T05:20:07;4.00;84.30
69595;DHT22;56800;52.142;5.364;2024-03-07T05:22:37;3.90;84.30
69595;DHT22;56800;52.142;5.364;2024-03-07T05:25:11;4.00;84.30
69595;DHT22;56800;52.142;5.364;2024-03-07T05:27:38;4.00;84.30
69595;DHT22;56800;52.142;5.364;2024-03-07T05:30:06;3.90;84.20
69595;DHT22;56800;52.142;5.364;2024-03-07T05:32:37;3.90;84.20
69595;DHT22;56800;52.142;5.364;2024-03-07T05:35:07;3.90;84.10
69595;DHT22;56800;52.142;5.364;2024-03-07T05:37:34;3.90;84.10
69595;DHT22;56800;52.142;5.364;2024-03-07T05:40:01;3.80;84.10
69595;DHT22;56800;52.142;5.364;2024-03-07T05:42:30;3.80;84.10
69595;DHT22;56800;52.142;5.364;2024-03-07T05:44:58;3.80;84.10
69595;DHT22;56800;52.142;5.364;2024-03-07T05:47:25;3.80;84.10
69595;DHT22;56800;52.142;5.364;2024-03-07T05:49:52;3.70;84.10
69595;DHT22;56800;52.142;5.364;2024-03-07T05:52:19;3.70;84.20
69595;DHT22;56800;52.142;5.364;2024-03-07T05:54:47;3.70;84.20
69595;DHT22;56800;52.142;5.364;2024-03-07T05:57:14;3.70;84.30
69595;DHT22;56800;52.142;5.364;2024-03-07T05:59:40;3.70;84.20
69595;DHT22;56800;52.142;5.364;2024-03-07T06:02:07;3.80;84.20
69595;DHT22;56800;52.142;5.364;2024-03-07T06:04:34;3.70;84.20
69595;DHT22;56800;52.142;5.364;2024-03-07T06:07:01;3.70;84.20
69595;DHT22;56800;52.142;5.364;2024-03-07T06:09:28;3.70;84.20
69595;DHT22;56800;52.142;5.364;2024-03-07T06:11:55;3.70;84.20
69595;DHT22;56800;52.142;5.364;2024-03-07T06:14:22;3.70;84.20
69595;DHT22;56800;52.142;5.364;2024-03-07T06:16:51;3.70;84.20
69595;DHT22;56800;52.142;5.364;2024-03-07T06:19:19;3.70;84.30
69595;DHT22;56800;52.142;5.364;2024-03-07T06:21:46;3.70;84.30
69595;DHT22;56800;52.142;5.364;2024-03-07T06:24:13;3.70;84.30
69595;DHT22;56800;52.142;5.364;2024-03-07T06:26:42;3.70;84.40
69595;DHT22;56800;52.142;5.364;2024-03-07T06:29:15;3.70;84.50
69595;DHT22;56800;52.142;5.364;2024-03-07T06:31:43;3.70;84.50
69595;DHT22;56800;52.142;5.364;2024-03-07T06:34:12;3.70;84.60
69595;DHT22;56800;52.142;5.364;2024-03-07T06:36:40;3.70;84.60
69595;DHT22;56800;52.142;5.364;2024-03-07T06:39:09;3.70;84.70
69595;DHT22;56800;52.142;5.364;2024-03-07T06:41:40;3.70;84.60
69595;DHT22;56800;52.142;5.364;2024-03-07T06:44:07;3.70;84.60
69595;DHT22;56800;52.142;5.364;2024-03-07T06:46:36;3.70;84.70
69595;DHT22;56800;52.142;5.364;2024-03-07T06:49:03;3.70;84.70
69595;DHT22;56800;52.142;5.364;2024-03-07T06:51:32;3.70;84.80
69595;DHT22;56800;52.142;5.364;2024-03-07T06:54:00;3.80;84.90
69595;DHT22;56800;52.142;5.364;2024-03-07T06:56:27;3.80;84.90
69595;DHT22;56800;52.142;5.364;2024-03-07T06:58:54;3.80;84.90
69595;DHT22;56800;52.142;5.364;2024-03-07T07:01:21;3.80;84.90
69595;DHT22;56800;52.142;5.364;2024-03-07T07:03:48;3.90;85.00
69595;DHT22;56800;52.142;5.364;2024-03-07T07:06:15;3.90;85.00
69595;DHT22;56800;52.142;5.364;2024-03-07T07:08:44;3.90;85.00
69595;DHT22;56800;52.142;5.364;2024-03-07T07:11:12;3.90;85.10
69595;DHT22;56800;52.142;5.364;2024-03-07T07:13:39;4.00;85.30
69595;DHT22;56800;52.142;5.364;2024-03-07T07:16:06;4.10;85.30
69595;DHT22;56800;52.142;5.364;2024-03-07T07:18:33;4.10;85.40
69595;DHT22;56800;52.142;5.364;2024-03-07T07:21:02;4.30;85.70
69595;DHT22;56800;52.142;5.364;2024-03-07T07:23:30;4.30;85.40
69595;DHT22;56800;52.142;5.364;2024-03-07T07:25:57;4.40;85.40
69595;DHT22;56800;52.142;5.364;2024-03-07T07:28:24;4.40;85.30
69595;DHT22;56800;52.142;5.364;2024-03-07T07:30:51;4.50;85.50
69595;DHT22;56800;52.142;5.364;2024-03-07T07:33:18;4.60;85.80
69595;DHT22;56800;52.142;5.364;2024-03-07T07:35:45;4.70;85.80
69595;DHT22;56800;52.142;5.364;2024-03-07T07:38:12;4.90;85.40
69595;DHT22;56800;52.142;5.364;2024-03-07T07:40:42;4.90;84.90
69595;DHT22;56800;52.142;5.364;2024-03-07T07:43:11;4.90;84.60
69595;DHT22;56800;52.142;5.364;2024-03-07T07:45:54;4.90;84.50
69595;DHT22;56800;52.142;5.364;2024-03-07T07:48:22;4.90;84.40
69595;DHT22;56800;52.142;5.364;2024-03-07T07:50:49;4.90;84.50
69595;DHT22;56800;52.142;5.364;2024-03-07T07:53:19;5.00;84.50
69595;DHT22;56800;52.142;5.364;2024-03-07T07:55:50;5.00;84.50
69595;DHT22;56800;52.142;5.364;2024-03-07T07:58:17;5.00;84.60
69595;DHT22;56800;52.142;5.364;2024-03-07T08:00:44;5.10;84.80
69595;DHT22;56800;52.142;5.364;2024-03-07T08:03:11;5.20;85.20
69595;DHT22;56800;52.142;5.364;2024-03-07T08:05:40;5.30;85.60
69595;DHT22;56800;52.142;5.364;2024-03-07T08:08:08;5.50;85.60
69595;DHT22;56800;52.142;5.364;2024-03-07T08:10:38;5.70;84.90
69595;DHT22;56800;52.142;5.364;2024-03-07T08:13:08;5.80;84.10
69595;DHT22;56800;52.142;5.364;2024-03-07T08:15:39;5.80;84.00
69595;DHT22;56800;52.142;5.364;2024-03-07T08:18:07;6.00;84.50
69595;DHT22;56800;52.142;5.364;2024-03-07T08:20:39;6.30;84.70
69595;DHT22;56800;52.142;5.364;2024-03-07T08:23:08;6.60;84.70
69595;DHT22;56800;52.142;5.364;2024-03-07T08:25:35;7.10;85.00
69595;DHT22;56800;52.142;5.364;2024-03-07T08:28:02;7.80;84.50
69595;DHT22;56800;52.142;5.364;2024-03-07T08:30:29;8.30;81.30
69595;DHT22;56800;52.142;5.364;2024-03-07T08:32:57;8.30;79.50
69595;DHT22;56800;52.142;5.364;2024-03-07T08:35:26;8.30;78.30
69595;DHT22;56800;52.142;5.364;2024-03-07T08:37:54;8.10;78.60
69595;DHT22;56800;52.142;5.364;2024-03-07T08:40:23;8.20;79.50
69595;DHT22;56800;52.142;5.364;2024-03-07T08:42:55;8.30;79.20
69595;DHT22;56800;52.142;5.364;2024-03-07T08:45:25;8.50;79.00
69595;DHT22;56800;52.142;5.364;2024-03-07T08:47:53;8.70;79.00
69595;DHT22;56800;52.142;5.364;2024-03-07T08:50:26;9.10;79.70
69595;DHT22;56800;52.142;5.364;2024-03-07T08:52:54;9.90;78.20
69595;DHT22;56800;52.142;5.364;2024-03-07T08:55:24;10.60;76.70
69595;DHT22;56800;52.142;5.364;2024-03-07T08:57:54;11.10;75.40
69595;DHT22;56800;52.142;5.364;2024-03-07T09:00:21;11.70;74.10
69595;DHT22;56800;52.142;5.364;2024-03-07T09:02:55;12.10;72.60
69595;DHT22;56800;52.142;5.364;2024-03-07T09:05:22;12.30;71.00
69595;DHT22;56800;52.142;5.364;2024-03-07T09:07:54;12.50;69.70
69595;DHT22;56800;52.142;5.364;2024-03-07T09:10:21;12.60;68.50
69595;DHT22;56800;52.142;5.364;2024-03-07T09:12:50;13.00;69.00
69595;DHT22;56800;52.142;5.364;2024-03-07T09:15:17;13.70;67.80
69595;DHT22;56800;52.142;5.364;2024-03-07T09:17:45;14.60;67.10
69595;DHT22;56800;52.142;5.364;2024-03-07T09:20:14;15.50;65.00
69595;DHT22;56800;52.142;5.364;2024-03-07T09:22:47;16.40;64.50
69595;DHT22;56800;52.142;5.364;2024-03-07T09:25:15;17.00;61.50
69595;DHT22;56800;52.142;5.364;2024-03-07T09:27:43;17.70;60.30
69595;DHT22;56800;52.142;5.364;2024-03-07T09:30:10;18.50;59.40
69595;DHT22;56800;52.142;5.364;2024-03-07T09:32:45;19.20;57.50
69595;DHT22;56800;52.142;5.364;2024-03-07T09:35:12;19.80;55.80
69595;DHT22;56800;52.142;5.364;2024-03-07T09:37:41;20.40;55.20
69595;DHT22;56800;52.142;5.364;2024-03-07T09:40:10;21.00;53.70
69595;DHT22;56800;52.142;5.364;2024-03-07T09:42:46;21.20;50.40
69595;DHT22;56800;52.142;5.364;2024-03-07T09:45:17;21.40;49.60
69595;DHT22;56800;52.142;5.364;2024-03-07T09:47:46;21.50;48.20
69595;DHT22;56800;52.142;5.364;2024-03-07T09:50:19;21.50;47.40
69595;DHT22;56800;52.142;5.364;2024-03-07T09:52:48;21.70;47.30
69595;DHT22;56800;52.142;5.364;2024-03-07T09:55:19;22.00;46.90
69595;DHT22;56800;52.142;5.364;2024-03-07T09:57:48;22.40;46.40
69595;DHT22;56800;52.142;5.364;2024-03-07T10:00:19;22.60;44.00
69595;DHT22;56800;52.142;5.364;2024-03-07T10:02:54;22.60;43.90
69595;DHT22;56800;52.142;5.364;2024-03-07T10:05:23;22.50;43.20
69595;DHT22;56800;52.142;5.364;2024-03-07T10:07:51;22.60;43.80
69595;DHT22;56800;52.142;5.364;2024-03-07T10:10:19;22.70;42.70
69595;DHT22;56800;52.142;5.364;2024-03-07T10:12:49;22.40;42.40
69595;DHT22;56800;52.142;5.364;2024-03-07T10:15:17;22.30;42.40
69595;DHT22;56800;52.142;5.364;2024-03-07T10:17:44;22.00;41.40
69595;DHT22;56800;52.142;5.364;2024-03-07T10:20:14;21.60;42.20
69595;DHT22;56800;52.142;5.364;2024-03-07T10:22:41;21.30;42.10
69595;DHT22;56800;52.142;5.364;2024-03-07T10:25:08;21.00;42.30
69595;DHT22;56800;52.142;5.364;2024-03-07T10:27:37;20.70;43.40
69595;DHT22;56800;52.142;5.364;2024-03-07T10:30:05;20.50;42.10
69595;DHT22;56800;52.142;5.364;2024-03-07T10:32:34;20.10;41.90
69595;DHT22;56800;52.142;5.364;2024-03-07T10:35:03;19.60;42.90
69595;DHT22;56800;52.142;5.364;2024-03-07T10:37:30;19.20;44.00
69595;DHT22;56800;52.142;5.364;2024-03-07T10:39:57;18.90;44.50
69595;DHT22;56800;52.142;5.364;2024-03-07T10:42:29;18.70;45.10
69595;DHT22;56800;52.142;5.364;2024-03-07T10:45:03;18.70;45.20
69595;DHT22;56800;52.142;5.364;2024-03-07T10:47:31;18.50;45.50
69595;DHT22;56800;52.142;5.364;2024-03-07T10:50:13;18.30;44.80
69595;DHT22;56800;52.142;5.364;2024-03-07T10:52:58;18.10;45.30
69595;DHT22;56800;52.142;5.364;2024-03-07T10:58:33;17.70;46.10
69595;DHT22;56800;52.142;5.364;2024-03-07T11:01:04;17.50;46.70
69595;DHT22;56800;52.142;5.364;2024-03-07T11:03:34;17.20;47.00
69595;DHT22;56800;52.142;5.364;2024-03-07T11:06:06;17.00;46.80
69595;DHT22;56800;52.142;5.364;2024-03-07T11:08:38;16.60;46.90
69595;DHT22;56800;52.142;5.364;2024-03-07T11:11:06;16.30;48.80
69595;DHT22;56800;52.142;5.364;2024-03-07T11:13:36;16.10;48.30
69595;DHT22;56800;52.142;5.364;2024-03-07T11:16:05;16.00;48.80
69595;DHT22;56800;52.142;5.364;2024-03-07T11:18:32;15.90;48.60
69595;DHT22;56800;52.142;5.364;2024-03-07T11:21:00;15.80;48.50
69595;DHT22;56800;52.142;5.364;2024-03-07T11:23:31;15.50;49.10
69595;DHT22;56800;52.142;5.364;2024-03-07T11:26:09;15.40;49.50
69595;DHT22;56800;52.142;5.364;2024-03-07T11:28:40;15.40;50.30
69595;DHT22;56800;52.142;5.364;2024-03-07T11:31:25;15.20;49.80
69595;DHT22;56800;52.142;5.364;2024-03-07T11:34:12;15.10;50.30
69595;DHT22;56800;52.142;5.364;2024-03-07T11:36:42;15.00;50.50
69595;DHT22;56800;52.142;5.364;2024-03-07T11:39:42;15.00;51.20
69595;DHT22;56800;52.142;5.364;2024-03-07T11:42:27;15.00;50.90
69595;DHT22;56800;52.142;5.364;2024-03-07T11:44:56;14.90;50.40
69595;DHT22;56800;52.142;5.364;2024-03-07T11:47:25;14.80;50.90
69595;DHT22;56800;52.142;5.364;2024-03-07T11:49:56;14.70;51.30
69595;DHT22;56800;52.142;5.364;2024-03-07T11:52:24;14.70;51.50
69595;DHT22;56800;52.142;5.364;2024-03-07T11:54:54;14.70;51.80
69595;DHT22;56800;52.142;5.364;2024-03-07T11:57:30;14.60;51.80
69595;DHT22;56800;52.142;5.364;2024-03-07T12:00:01;14.50;52.20
69595;DHT22;56800;52.142;5.364;2024-03-07T12:02:37;14.60;52.20
69595;DHT22;56800;52.142;5.364;2024-03-07T12:05:05;14.60;52.20
69595;DHT22;56800;52.142;5.364;2024-03-07T12:07:32;14.70;51.90
69595;DHT22;56800;52.142;5.364;2024-03-07T12:10:01;14.60;51.50
69595;DHT22;56800;52.142;5.364;2024-03-07T12:12:31;14.60;51.20
69595;DHT22;56800;52.142;5.364;2024-03-07T12:15:00;14.60;52.10
69595;DHT22;56800;52.142;5.364;2024-03-07T12:17:29;14.70;51.80
69595;DHT22;56800;52.142;5.364;2024-03-07T12:20:01;14.70;51.80
69595;DHT22;56800;52.142;5.364;2024-03-07T12:22:47;14.80;51.90
69595;DHT22;56800;52.142;5.364;2024-03-07T12:25:18;15.00;51.70
69595;DHT22;56800;52.142;5.364;2024-03-07T12:28:01;15.10;51.50
69595;DHT22;56800;52.142;5.364;2024-03-07T12:30:34;15.20;50.60
69595;DHT22;56800;52.142;5.364;2024-03-07T12:33:02;15.20;50.80
69595;DHT22;56800;52.142;5.364;2024-03-07T12:35:34;15.20;50.70
69595;DHT22;56800;52.142;5.364;2024-03-07T12:38:02;15.10;50.40
69595;DHT22;56800;52.142;5.364;2024-03-07T12:40:36;15.10;51.00
69595;DHT22;56800;52.142;5.364;2024-03-07T12:43:19;15.30;51.80
69595;DHT22;56800;52.142;5.364;2024-03-07T12:45:51;15.50;51.30
69595;DHT22;56800;52.142;5.364;2024-03-07T12:48:19;15.50;50.60
69595;DHT22;56800;52.142;5.364;2024-03-07T12:50:49;15.60;50.80
69595;DHT22;56800;52.142;5.364;2024-03-07T12:53:20;15.60;50.70
69595;DHT22;56800;52.142;5.364;2024-03-07T12:55:49;15.60;50.10
69595;DHT22;56800;52.142;5.364;2024-03-07T12:58:15;15.60;50.70
69595;DHT22;56800;52.142;5.364;2024-03-07T13:00:43;15.70;50.90
69595;DHT22;56800;52.142;5.364;2024-03-07T13:03:10;15.70;51.00
69595;DHT22;56800;52.142;5.364;2024-03-07T13:05:37;15.80;50.80
69595;DHT22;56800;52.142;5.364;2024-03-07T13:08:10;15.80;50.60
69595;DHT22;56800;52.142;5.364;2024-03-07T13:10:41;15.80;50.00
69595;DHT22;56800;52.142;5.364;2024-03-07T13:13:09;15.60;50.30
69595;DHT22;56800;52.142;5.364;2024-03-07T13:15:39;15.50;50.60
69595;DHT22;56800;52.142;5.364;2024-03-07T13:18:06;15.50;51.30
69595;DHT22;56800;52.142;5.364;2024-03-07T13:20:35;15.40;50.10
69595;DHT22;56800;52.142;5.364;2024-03-07T13:23:02;15.20;50.50
69595;DHT22;56800;52.142;5.364;2024-03-07T13:25:30;15.10;50.40
69595;DHT22;56800;52.142;5.364;2024-03-07T13:28:06;15.10;51.60
69595;DHT22;56800;52.142;5.364;2024-03-07T13:30:51;15.10;50.80
69595;DHT22;56800;52.142;5.364;2024-03-07T13:33:22;15.00;51.20
69595;DHT22;56800;52.142;5.364;2024-03-07T13:35:52;14.90;51.20
69595;DHT22;56800;52.142;5.364;2024-03-07T13:38:19;14.80;51.70
69595;DHT22;56800;52.142;5.364;2024-03-07T13:40:48;14.80;52.30
69595;DHT22;56800;52.142;5.364;2024-03-07T13:43:17;14.80;52.30
69595;DHT22;56800;52.142;5.364;2024-03-07T13:45:45;14.70;52.20
69595;DHT22;56800;52.142;5.364;2024-03-07T13:48:11;14.70;52.30
69595;DHT22;56800;52.142;5.364;2024-03-07T13:50:43;14.50;52.80
69595;DHT22;56800;52.142;5.364;2024-03-07T13:53:25;14.50;53.00
69595;DHT22;56800;52.142;5.364;2024-03-07T14:01:59;14.10;54.10
69595;DHT22;56800;52.142;5.364;2024-03-07T14:05:52;14.00;54.70
69595;DHT22;56800;52.142;5.364;2024-03-07T14:08:00;13.80;54.90
69595;DHT22;56800;52.142;5.364;2024-03-07T14:19:48;13.60;56.20
69595;DHT22;56800;52.142;5.364;2024-03-07T14:25:34;13.30;56.60
69595;DHT22;56800;52.142;5.364;2024-03-07T14:28:42;13.10;57.30
69595;DHT22;56800;52.142;5.364;2024-03-07T14:31:12;12.80;58.30
69595;DHT22;56800;52.142;5.364;2024-03-07T14:34:01;12.70;58.90
69595;DHT22;56800;52.142;5.364;2024-03-07T14:36:38;12.60;59.20
69595;DHT22;56800;52.142;5.364;2024-03-07T14:39:06;12.60;59.70
69595;DHT22;56800;52.142;5.364;2024-03-07T14:44:17;12.40;59.90
69595;DHT22;56800;52.142;5.364;2024-03-07T14:46:46;12.20;59.80
69595;DHT22;56800;52.142;5.364;2024-03-07T14:49:17;12.00;60.10
69595;DHT22;56800;52.142;5.364;2024-03-07T14:51:44;11.80;60.40
69595;DHT22;56800;52.142;5.364;2024-03-07T14:54:26;11.60;60.90
69595;DHT22;56800;52.142;5.364;2024-03-07T14:56:53;11.50;61.40
69595;DHT22;56800;52.142;5.364;2024-03-07T14:59:21;11.40;61.70
69595;DHT22;56800;52.142;5.364;2024-03-07T15:01:48;11.40;61.80
69595;DHT22;56800;52.142;5.364;2024-03-07T15:04:15;11.30;62.20
69595;DHT22;56800;52.142;5.364;2024-03-07T15:06:42;11.30;62.30
69595;DHT22;56800;52.142;5.364;2024-03-07T15:09:10;11.20;62.50
69595;DHT22;56800;52.142;5.364;2024-03-07T15:11:37;11.20;62.60
69595;DHT22;56800;52.142;5.364;2024-03-07T15:14:07;11.20;62.80
69595;DHT22;56800;52.142;5.364;2024-03-07T15:16:38;11.10;63.00
69595;DHT22;56800;52.142;5.364;2024-03-07T15:19:09;11.10;62.90
69595;DHT22;56800;52.142;5.364;2024-03-07T15:21:36;11.00;63.00
69595;DHT22;56800;52.142;5.364;2024-03-07T15:24:06;11.00;63.30
69595;DHT22;56800;52.142;5.364;2024-03-07T15:26:33;11.00;63.70
69595;DHT22;56800;52.142;5.364;2024-03-07T15:29:01;11.10;63.70
69595;DHT22;56800;52.142;5.364;2024-03-07T15:31:28;11.10;63.50
69595;DHT22;56800;52.142;5.364;2024-03-07T15:33:55;11.20;63.60
69595;DHT22;56800;52.142;5.364;2024-03-07T15:36:23;11.10;63.60
69595;DHT22;56800;52.142;5.364;2024-03-07T15:38:50;11.10;63.60
69595;DHT22;56800;52.142;5.364;2024-03-07T15:41:17;11.20;63.50
69595;DHT22;56800;52.142;5.364;2024-03-07T15:43:45;11.20;63.60
69595;DHT22;56800;52.142;5.364;2024-03-07T15:46:12;11.20;63.70
69595;DHT22;56800;52.142;5.364;2024-03-07T15:48:44;11.20;63.70
69595;DHT22;56800;52.142;5.364;2024-03-07T15:51:12;11.10;63.60
69595;DHT22;56800;52.142;5.364;2024-03-07T15:53:41;11.10;63.90
69595;DHT22;56800;52.142;5.364;2024-03-07T15:56:09;11.10;64.00
69595;DHT22;56800;52.142;5.364;2024-03-07T15:58:35;11.10;63.90
69595;DHT22;56800;52.142;5.364;2024-03-07T16:01:03;11.00;63.70
69595;DHT22;56800;52.142;5.364;2024-03-07T16:03:30;10.90;63.60
69595;DHT22;56800;52.142;5.364;2024-03-07T16:05:56;10.90;64.00
69595;DHT22;56800;52.142;5.364;2024-03-07T16:08:24;10.80;64.20
69595;DHT22;56800;52.142;5.364;2024-03-07T16:10:51;10.80;64.20
69595;DHT22;56800;52.142;5.364;2024-03-07T16:13:19;10.80;64.50
69595;DHT22;56800;52.142;5.364;2024-03-07T16:15:46;10.80;64.70
69595;DHT22;56800;52.142;5.364;2024-03-07T16:18:14;10.80;64.60